createdAt,value
2018-04-15T00:04:43.334Z,50.93
2018-04-15T00:27:25.049Z,56.43
2018-04-15T00:29:55.216Z,52.17
2018-04-15T00:32:23.383Z,53.37
2018-04-15T00:34:52.632Z,56.70
2018-04-15T00:37:21.638Z,49.23
2018-04-15T00:39:54.256Z,55.23
2018-04-15T00:42:26.872Z,50.87
2018-04-15T00:45:12.046Z,56.47
2018-04-15T00:47:47.123Z,53.20
2018-04-15T00:50:28.418Z,54.13
2018-04-15T00:52:56.528Z,52.83
2018-04-15T00:55:37.075Z,54.87
2018-04-15T00:58:06.113Z,55.60
2018-04-15T01:00:34.200Z,53.30
2018-04-15T01:03:07.305Z,52.63
2018-04-15T01:05:49.008Z,54.17
2018-04-15T01:08:20.777Z,52.10
2018-04-15T01:10:49.769Z,55.63
2018-04-15T01:13:25.001Z,50.30
2018-04-15T01:15:59.937Z,55.63
2018-04-15T01:18:28.986Z,57.33
2018-04-15T01:20:59.025Z,50.70
2018-04-15T01:23:29.059Z,54.13
2018-04-15T01:26:04.681Z,56.13
2018-04-15T01:28:47.193Z,54.97
2018-04-15T01:34:09.645Z,52.97
2018-04-15T01:36:54.328Z,54.23
2018-04-15T01:39:22.418Z,53.50
2018-04-15T01:41:54.639Z,53.97
2018-04-15T01:44:35.101Z,49.57
2018-04-15T01:47:05.889Z,55.90
2018-04-15T01:49:34.968Z,51.87
2018-04-15T01:52:07.488Z,59.73
2018-04-15T01:54:35.582Z,51.77
2018-04-15T01:57:03.658Z,56.03
2018-04-15T01:59:31.751Z,50.10
2018-04-15T02:02:03.693Z,52.77
2018-04-15T02:04:38.968Z,53.83
2018-04-15T02:07:08.993Z,49.63
2018-04-15T02:09:37.985Z,58.10
2018-04-15T02:14:59.815Z,54.10
2018-04-15T02:17:27.901Z,54.23
2018-04-15T02:19:59.424Z,58.53
2018-04-15T02:22:46.488Z,59.53
2018-04-15T02:25:20.398Z,54.40
2018-04-15T02:27:51.420Z,60.60
2018-04-15T02:30:20.529Z,55.97
2018-04-15T02:32:56.768Z,63.37
2018-04-15T02:35:24.855Z,60.00
2018-04-15T02:37:57.369Z,66.37
2018-04-15T02:40:33.802Z,58.17
2018-04-15T02:43:10.454Z,64.17
2018-04-15T02:45:44.449Z,63.80
2018-04-15T02:48:18.162Z,62.33
2018-04-15T02:50:52.401Z,63.97
2018-04-15T02:53:20.494Z,61.43
2018-04-15T02:55:48.593Z,64.37
2018-04-15T02:58:17.681Z,70.53
2018-04-15T03:00:47.751Z,66.40
2018-04-15T03:03:23.956Z,62.10
2018-04-15T03:05:52.998Z,67.80
2018-04-15T03:08:38.268Z,59.30
2018-04-15T03:11:14.993Z,61.13
2018-04-15T03:13:50.786Z,62.63
2018-04-15T03:16:20.879Z,58.73
2018-04-15T03:19:06.789Z,61.37
2018-04-15T03:21:46.848Z,62.77
2018-04-15T03:27:14.757Z,58.30
2018-04-15T03:29:55.251Z,62.33
2018-04-15T03:32:29.131Z,62.93
2018-04-15T03:34:57.228Z,59.37
2018-04-15T03:37:25.321Z,60.27
2018-04-15T03:40:03.400Z,61.90
2018-04-15T03:42:32.254Z,61.37
2018-04-15T03:45:00.352Z,64.63
2018-04-15T03:47:29.766Z,74.67
2018-04-15T03:50:01.009Z,67.07
2018-04-15T03:52:29.113Z,68.20
2018-04-15T03:57:51.160Z,64.83
2018-04-15T04:00:19.254Z,60.27
2018-04-15T04:02:48.896Z,63.97
2018-04-15T04:05:18.293Z,61.67
2018-04-15T04:07:47.288Z,65.93
2018-04-15T04:10:28.590Z,80.50
2018-04-15T04:12:58.627Z,55.93
2018-04-15T04:15:30.562Z,57.03
2018-04-15T04:18:10.521Z,54.07
2018-04-15T04:20:51.317Z,50.97
2018-04-15T04:23:31.698Z,47.37
2018-04-15T04:26:04.688Z,51.07
2018-04-15T04:28:54.042Z,47.10
2018-04-15T04:31:22.101Z,45.10
2018-04-15T04:33:50.197Z,47.50
2018-04-15T04:36:40.905Z,48.03
2018-04-15T04:39:14.456Z,58.37
2018-04-15T04:41:46.315Z,52.83
2018-04-15T04:44:15.359Z,58.40
2018-04-15T04:46:48.629Z,55.07
2018-04-15T04:49:21.226Z,54.60
2018-04-15T04:51:53.000Z,67.80
2018-04-15T04:54:21.992Z,64.00
2018-04-15T04:56:56.082Z,61.30
2018-04-15T04:59:28.089Z,59.67
2018-04-15T05:04:59.064Z,57.80
2018-04-15T05:07:46.602Z,55.63
2018-04-15T05:10:15.472Z,49.70
2018-04-15T05:12:46.720Z,47.37
2018-04-15T05:15:14.854Z,46.87
2018-04-15T05:17:53.822Z,46.93
2018-04-15T05:23:23.171Z,50.93
2018-04-15T05:26:08.807Z,47.70
2018-04-15T05:28:48.796Z,46.60
2018-04-15T05:31:18.652Z,44.90
2018-04-15T05:33:46.867Z,47.27
2018-04-15T05:36:27.427Z,43.93
2018-04-15T05:38:57.457Z,46.67
2018-04-15T05:41:27.514Z,47.80
2018-04-15T05:43:55.602Z,48.37
2018-04-15T05:46:35.394Z,46.50
2018-04-15T05:49:10.135Z,44.20
2018-04-15T05:51:38.222Z,45.00
2018-04-15T05:54:11.140Z,44.83
2018-04-15T05:56:40.128Z,44.70
2018-04-15T05:59:12.841Z,49.07
2018-04-15T06:01:42.848Z,43.67
2018-04-15T06:04:21.896Z,45.30
2018-04-15T06:06:58.444Z,44.17
2018-04-15T06:09:32.313Z,44.20
2018-04-15T06:12:12.143Z,45.70
2018-04-15T06:14:41.376Z,40.30
2018-04-15T06:17:09.471Z,38.70
2018-04-15T06:19:37.592Z,42.23
2018-04-15T06:22:05.882Z,40.53
2018-04-15T06:24:35.003Z,40.20
2018-04-15T06:27:20.203Z,42.50
2018-04-15T06:29:52.681Z,42.00
2018-04-15T06:32:20.778Z,42.50
2018-04-15T06:34:49.661Z,40.30
2018-04-15T06:37:18.686Z,41.20
2018-04-15T06:39:54.028Z,43.40
2018-04-15T06:42:30.040Z,41.67
2018-04-15T06:48:03.107Z,41.20
2018-04-15T06:50:33.181Z,42.80
2018-04-15T06:53:03.060Z,39.53
2018-04-15T06:55:35.543Z,39.70
2018-04-15T06:58:03.681Z,37.80
2018-04-15T07:00:45.573Z,41.40
2018-04-15T07:03:14.653Z,41.17
2018-04-15T07:05:44.711Z,44.77
2018-04-15T07:08:12.827Z,42.40
2018-04-15T07:10:40.971Z,41.90
2018-04-15T07:13:17.508Z,36.00
2018-04-15T07:15:46.580Z,37.50
2018-04-15T07:18:21.926Z,43.50
2018-04-15T07:20:50.089Z,40.13
2018-04-15T07:26:14.875Z,40.40
2018-04-15T07:28:43.510Z,39.80
2018-04-15T07:31:22.353Z,38.23
2018-04-15T07:33:57.787Z,44.50
2018-04-15T07:36:26.038Z,44.10
2018-04-15T07:38:54.136Z,46.13
2018-04-15T07:41:23.961Z,42.67
2018-04-15T07:43:54.036Z,45.00
2018-04-15T07:46:27.182Z,45.23
2018-04-15T07:49:02.569Z,42.63
2018-04-15T07:54:29.941Z,42.47
2018-04-15T07:56:58.434Z,46.77
2018-04-15T07:59:28.531Z,52.63
2018-04-15T08:02:04.030Z,44.40
2018-04-15T08:04:36.038Z,42.70
2018-04-15T08:07:04.167Z,43.90
2018-04-15T08:09:38.249Z,49.20
2018-04-15T08:12:10.061Z,46.40
2018-04-15T08:14:48.530Z,47.67
2018-04-15T08:17:16.730Z,47.37
2018-04-15T08:19:44.882Z,47.20
2018-04-15T08:22:21.747Z,42.70
2018-04-15T08:24:50.831Z,43.50
2018-04-15T08:27:24.312Z,43.87
2018-04-15T08:29:55.393Z,47.73
2018-04-15T08:32:24.350Z,46.60
2018-04-15T08:34:58.562Z,51.47
2018-04-15T08:37:27.102Z,47.80
2018-04-15T08:39:56.286Z,46.50
2018-04-15T08:42:31.992Z,48.03
2018-04-15T08:45:00.995Z,47.50
2018-04-15T08:47:39.871Z,47.17
2018-04-15T08:50:27.305Z,45.27
2018-04-15T08:52:58.168Z,44.50
2018-04-15T08:55:28.718Z,44.60
2018-04-15T08:57:56.921Z,43.70
2018-04-15T09:00:25.014Z,48.50
2018-04-15T09:02:58.894Z,47.70
2018-04-15T09:05:30.858Z,44.70
2018-04-15T09:08:09.094Z,50.00
2018-04-15T09:10:39.909Z,45.90
2018-04-15T09:13:09.000Z,44.07
2018-04-15T09:15:41.279Z,42.77
2018-04-15T09:18:14.019Z,51.93
2018-04-15T09:20:55.217Z,47.60
2018-04-15T09:23:33.975Z,52.23
2018-04-15T09:26:02.104Z,52.50
2018-04-15T09:28:33.470Z,47.90
2018-04-15T09:31:07.308Z,49.90
2018-04-15T09:33:55.782Z,50.33
2018-04-15T09:36:26.676Z,50.13
2018-04-15T09:38:55.737Z,47.60
2018-04-15T09:41:31.245Z,47.03
2018-04-15T09:44:04.276Z,46.40
2018-04-15T09:46:42.824Z,48.43
2018-04-15T09:49:10.963Z,45.70
2018-04-15T09:51:40.099Z,43.23
2018-04-15T09:54:13.971Z,41.87
2018-04-15T09:56:43.034Z,46.43
2018-04-15T09:59:12.188Z,47.80
2018-04-15T10:01:41.250Z,46.93
2018-04-15T10:04:13.502Z,51.10
2018-04-15T10:06:43.578Z,49.47
2018-04-15T10:09:17.738Z,44.93
2018-04-15T10:11:50.324Z,49.27
2018-04-15T10:14:18.477Z,38.53
2018-04-15T10:16:48.333Z,45.57
2018-04-15T10:19:22.255Z,43.93
2018-04-15T10:21:50.382Z,41.77
2018-04-15T10:24:18.542Z,45.60
2018-04-15T10:26:48.109Z,39.87
2018-04-15T10:29:16.270Z,42.33
2018-04-15T10:31:54.527Z,39.67
2018-04-15T10:34:24.593Z,39.70
2018-04-15T10:37:18.121Z,38.33
2018-04-15T10:39:46.285Z,40.50
2018-04-15T10:42:15.365Z,43.10
2018-04-15T10:44:43.616Z,39.00
2018-04-15T10:47:13.795Z,42.97
2018-04-15T10:49:48.147Z,40.07
2018-04-15T10:52:16.366Z,44.13
2018-04-15T10:54:49.193Z,42.90
2018-04-15T10:57:17.334Z,39.60
2018-04-15T10:59:48.435Z,38.70
2018-04-15T11:02:16.541Z,39.00
2018-04-15T11:04:44.655Z,35.83
2018-04-15T11:07:24.158Z,40.20
2018-04-15T11:09:57.133Z,41.07
2018-04-15T11:12:25.349Z,43.33
2018-04-15T11:14:53.562Z,44.10
2018-04-15T11:17:21.656Z,45.60
2018-04-15T11:19:49.791Z,41.10
2018-04-15T11:22:19.887Z,38.03
2018-04-15T11:24:48.701Z,37.13
2018-04-15T11:27:17.846Z,37.77
2018-04-15T11:29:45.949Z,34.83
2018-04-15T11:32:18.857Z,35.37
2018-04-15T11:34:47.788Z,33.13
2018-04-15T11:37:19.178Z,34.63
2018-04-15T11:39:51.938Z,35.63
2018-04-15T11:42:22.710Z,32.30
2018-04-15T11:44:57.998Z,35.23
2018-04-15T11:47:26.677Z,30.93
2018-04-15T11:49:55.795Z,31.73
2018-04-15T11:52:23.975Z,33.90
2018-04-15T11:54:52.142Z,31.33
2018-04-15T11:57:30.011Z,31.17
2018-04-15T12:02:57.102Z,32.40
2018-04-15T12:05:26.072Z,32.47
2018-04-15T12:07:56.859Z,35.20
2018-04-15T12:10:24.951Z,29.73
2018-04-15T12:12:58.915Z,31.23
2018-04-15T12:15:33.392Z,32.70
2018-04-15T12:18:06.574Z,31.87
2018-04-15T12:20:42.901Z,32.90
2018-04-15T12:23:11.123Z,30.17
2018-04-15T12:25:39.237Z,30.13
2018-04-15T12:28:08.373Z,33.37
2018-04-15T12:33:34.308Z,36.40
2018-04-15T12:36:08.414Z,33.10
2018-04-15T12:38:37.534Z,32.83
2018-04-15T12:41:08.940Z,38.27
2018-04-15T12:43:37.986Z,34.93
2018-04-15T12:46:08.124Z,36.53
2018-04-15T12:48:36.227Z,33.53
2018-04-15T12:51:07.663Z,36.10
2018-04-15T12:53:36.701Z,35.40
2018-04-15T12:56:05.557Z,35.60
2018-04-15T12:58:33.722Z,35.47
2018-04-15T13:01:06.032Z,34.67
2018-04-15T13:03:35.088Z,35.70
2018-04-15T13:06:03.239Z,37.90
2018-04-15T13:08:34.942Z,35.63
2018-04-15T13:11:08.613Z,36.03
2018-04-15T13:13:42.244Z,36.60
2018-04-15T13:16:14.641Z,33.03
2018-04-15T13:18:49.097Z,36.33
2018-04-15T13:21:17.201Z,38.90
2018-04-15T13:23:46.092Z,38.17
2018-04-15T13:26:16.185Z,41.33
2018-04-15T13:28:49.933Z,38.80
2018-04-15T13:31:18.194Z,36.07
2018-04-15T13:33:47.299Z,35.90
2018-04-15T13:36:15.382Z,34.57
2018-04-15T13:38:49.183Z,37.73
2018-04-15T13:41:17.422Z,37.70
2018-04-15T13:43:47.549Z,36.70
2018-04-15T13:46:17.682Z,38.40
2018-04-15T13:49:00.558Z,35.43
2018-04-15T13:51:28.670Z,34.60
2018-04-15T13:53:58.776Z,35.37
2018-04-15T13:56:40.400Z,36.03
2018-04-15T13:59:15.507Z,34.83
2018-04-15T14:01:44.380Z,34.77
2018-04-15T14:04:15.256Z,36.47
2018-04-15T14:06:50.358Z,35.77
2018-04-15T14:09:22.511Z,33.60
2018-04-15T14:11:57.140Z,33.20
2018-04-15T14:14:26.189Z,30.50
2018-04-15T14:16:55.260Z,34.13
2018-04-15T14:19:23.385Z,33.27
2018-04-15T14:21:52.626Z,31.70
2018-04-15T14:24:24.126Z,34.50
2018-04-15T14:26:56.818Z,30.87
2018-04-15T14:29:26.889Z,30.93
2018-04-15T14:31:57.667Z,28.87
2018-04-15T14:34:28.462Z,31.70
2018-04-15T14:36:58.560Z,31.73
2018-04-15T14:39:34.008Z,32.30
2018-04-15T14:42:08.849Z,34.97
2018-04-15T14:44:43.443Z,33.30
2018-04-15T14:47:11.556Z,30.73
2018-04-15T14:49:54.367Z,30.50
2018-04-15T14:52:26.651Z,30.00
2018-04-15T14:54:57.476Z,33.07
2018-04-15T14:57:25.575Z,33.07
2018-04-15T14:59:57.629Z,35.13
2018-04-15T15:02:26.786Z,32.00
2018-04-15T15:04:55.870Z,36.10
2018-04-15T15:07:31.031Z,33.77
2018-04-15T15:09:59.286Z,33.73
2018-04-15T15:12:27.397Z,30.77
2018-04-15T15:14:58.905Z,31.53
2018-04-15T15:17:30.387Z,30.53
2018-04-15T15:20:01.634Z,28.00
2018-04-15T15:22:29.876Z,31.03
2018-04-15T15:25:04.788Z,33.60
2018-04-15T15:27:34.835Z,33.20
2018-04-15T15:30:03.023Z,30.70
2018-04-15T15:32:39.639Z,30.70
2018-04-15T15:35:13.590Z,30.37
2018-04-15T15:37:50.014Z,28.60
2018-04-15T15:40:21.929Z,32.37
2018-04-15T15:42:53.573Z,33.60
2018-04-15T15:45:23.574Z,32.47
2018-04-15T15:47:56.127Z,33.40
2018-04-15T15:50:31.178Z,32.90
2018-04-15T15:53:00.377Z,31.40
2018-04-15T15:55:30.766Z,34.17
2018-04-15T15:58:00.065Z,33.30
2018-04-15T16:00:32.180Z,33.13
2018-04-15T16:03:03.709Z,31.30
2018-04-15T16:05:31.842Z,33.23
2018-04-15T16:08:01.919Z,31.50
2018-04-15T16:10:33.555Z,34.13
2018-04-15T16:13:04.693Z,33.27
2018-04-15T16:15:35.647Z,33.10
2018-04-15T16:18:05.832Z,30.23
2018-04-15T16:20:41.035Z,33.47
2018-04-15T16:23:15.097Z,32.40
2018-04-15T16:25:53.393Z,32.47
2018-04-15T16:28:30.036Z,30.53
2018-04-15T16:31:03.759Z,31.13
2018-04-15T16:33:45.881Z,33.40
2018-04-15T16:36:16.252Z,34.77
2018-04-15T16:39:04.646Z,34.10
2018-04-15T16:41:33.356Z,32.73
2018-04-15T16:44:15.425Z,32.73
2018-04-15T16:47:00.591Z,30.00
2018-04-15T16:49:35.954Z,29.67
2018-04-15T16:52:08.656Z,34.40
2018-04-15T16:54:42.191Z,36.00
2018-04-15T16:57:17.780Z,33.37
2018-04-15T16:59:57.785Z,33.57
2018-04-15T17:02:27.391Z,31.37
2018-04-15T17:04:59.325Z,31.30
2018-04-15T17:07:46.641Z,32.80
2018-04-15T17:10:16.722Z,31.93
2018-04-15T17:12:45.392Z,30.23
2018-04-15T17:15:22.750Z,30.57
2018-04-15T17:17:52.599Z,30.60
2018-04-15T17:20:34.943Z,29.23
2018-04-15T17:23:04.859Z,30.40
2018-04-15T17:25:34.223Z,28.73
2018-04-15T17:28:02.366Z,33.43
2018-04-15T17:30:35.944Z,29.63
2018-04-15T17:33:04.392Z,30.37
2018-04-15T17:38:27.890Z,30.53
2018-04-15T17:40:56.035Z,28.90
2018-04-15T17:43:25.071Z,29.43
2018-04-15T17:45:54.030Z,31.73
2018-04-15T17:48:30.729Z,30.13
2018-04-15T17:51:01.124Z,34.00
2018-04-15T17:53:31.349Z,34.07
2018-04-15T17:56:02.692Z,35.00
2018-04-15T17:58:31.763Z,30.57
2018-04-15T18:00:59.904Z,34.20
2018-04-15T18:03:29.086Z,26.50
2018-04-15T18:05:57.415Z,31.60
2018-04-15T18:08:37.785Z,33.47
2018-04-15T18:11:08.589Z,29.10
2018-04-15T18:13:38.274Z,30.00
2018-04-15T18:16:29.618Z,31.00
2018-04-15T18:19:05.433Z,30.07
2018-04-15T18:21:34.471Z,28.53
2018-04-15T18:24:03.109Z,28.07
2018-04-15T18:26:31.448Z,31.10
2018-04-15T18:29:02.493Z,30.97
2018-04-15T18:31:33.203Z,32.10
2018-04-15T18:34:01.449Z,33.20
2018-04-15T18:36:33.459Z,27.93
2018-04-15T18:39:09.011Z,33.37
2018-04-15T18:41:39.106Z,28.27
2018-04-15T18:44:07.559Z,31.77
2018-04-15T18:46:36.773Z,30.97
2018-04-15T18:49:04.898Z,30.93
2018-04-15T18:51:33.684Z,29.87
2018-04-15T18:54:02.889Z,29.77
2018-04-15T18:56:47.912Z,34.17
2018-04-15T18:59:23.781Z,31.33
2018-04-15T19:01:54.826Z,32.07
2018-04-15T19:04:38.113Z,32.53
2018-04-15T19:07:07.057Z,30.70
2018-04-15T19:09:37.235Z,28.57
2018-04-15T19:12:06.001Z,30.33
2018-04-15T19:14:36.086Z,34.10
2018-04-15T19:17:04.228Z,29.37
2018-04-15T19:19:34.285Z,30.40
2018-04-15T19:22:07.121Z,31.03
2018-04-15T19:24:36.036Z,31.47
2018-04-15T19:27:04.526Z,32.40
2018-04-15T19:29:34.374Z,31.53
2018-04-15T19:32:02.506Z,31.13
2018-04-15T19:34:30.657Z,33.33
2018-04-15T19:36:59.749Z,31.87
2018-04-15T19:39:28.923Z,36.07
2018-04-15T19:41:57.178Z,32.67
2018-04-15T19:44:25.270Z,29.77
2018-04-15T19:46:54.353Z,32.77
2018-04-15T19:49:27.516Z,31.47
2018-04-15T19:51:56.474Z,30.97
2018-04-15T19:54:26.120Z,28.40
2018-04-15T19:57:00.264Z,30.20
2018-04-15T19:59:32.622Z,31.23
2018-04-15T20:02:00.763Z,33.00
2018-04-15T20:04:36.731Z,31.07
2018-04-15T20:07:28.837Z,32.90
2018-04-15T20:09:57.750Z,35.43
2018-04-15T20:12:35.026Z,32.17
2018-04-15T20:15:03.153Z,31.13
2018-04-15T20:17:39.889Z,32.30
2018-04-15T20:20:08.029Z,32.20
2018-04-15T20:22:37.920Z,33.70
2018-04-15T20:25:11.566Z,36.23
2018-04-15T20:27:43.526Z,41.03
2018-04-15T20:30:20.918Z,42.10
2018-04-15T20:35:27.541Z,40.03
2018-04-15T20:37:57.707Z,44.50
2018-04-15T20:40:34.181Z,43.30
2018-04-15T20:43:03.091Z,46.20
2018-04-15T20:45:40.959Z,44.60
2018-04-15T20:48:27.393Z,47.30
2018-04-15T20:51:01.568Z,47.27
2018-04-15T20:53:29.709Z,44.80
2018-04-15T20:56:02.227Z,45.07
2018-04-15T20:58:35.630Z,46.70
2018-04-15T21:01:03.762Z,44.90
2018-04-15T21:03:32.775Z,52.10
2018-04-15T21:06:08.264Z,47.60
2018-04-15T21:08:44.881Z,47.20
2018-04-15T21:11:13.871Z,51.00
2018-04-15T21:13:42.007Z,54.90
2018-04-15T21:16:10.515Z,57.90
2018-04-15T21:18:51.576Z,58.97
2018-04-15T21:21:34.609Z,60.70
2018-04-15T21:24:27.662Z,56.97
2018-04-15T21:26:55.773Z,57.03
2018-04-15T21:29:30.022Z,59.33
2018-04-15T21:32:01.354Z,60.80
2018-04-15T21:37:33.873Z,61.27
2018-04-15T21:40:02.006Z,57.10
2018-04-15T21:42:37.251Z,56.77
2018-04-15T21:45:25.199Z,55.80
2018-04-15T21:47:54.102Z,57.30
2018-04-15T21:50:26.853Z,53.47
2018-04-15T21:53:01.524Z,54.57
2018-04-15T21:55:29.628Z,56.00
2018-04-15T21:58:00.278Z,62.53
2018-04-15T22:00:28.404Z,54.70
2018-04-15T22:03:10.350Z,56.00
2018-04-15T22:05:39.242Z,53.57
2018-04-15T22:08:08.122Z,50.20
2018-04-15T22:10:48.068Z,52.70
2018-04-15T22:13:16.567Z,49.97
2018-04-15T22:15:59.547Z,56.73
2018-04-15T22:18:33.618Z,51.30
2018-04-15T22:21:01.746Z,51.90
2018-04-15T22:23:30.657Z,55.47
2018-04-15T22:28:58.609Z,57.23
2018-04-15T22:31:41.633Z,57.13
2018-04-15T22:34:27.190Z,63.40
2018-04-15T22:36:56.278Z,65.83
2018-04-15T22:39:41.881Z,63.13
2018-04-15T22:42:18.939Z,69.70
2018-04-15T22:44:48.048Z,69.00
2018-04-15T22:47:16.148Z,66.13
2018-04-15T22:49:44.313Z,69.77
2018-04-15T22:52:15.984Z,70.07
2018-04-15T22:54:44.130Z,76.30
2018-04-15T22:57:16.766Z,66.93
2018-04-15T22:59:44.885Z,67.17
2018-04-15T23:02:13.784Z,64.33
2018-04-15T23:04:41.902Z,73.90
2018-04-15T23:07:10.070Z,75.93
2018-04-15T23:09:42.250Z,75.30
2018-04-15T23:15:08.997Z,78.30
2018-04-15T23:17:39.305Z,78.60
2018-04-15T23:20:08.482Z,70.70
2018-04-15T23:22:38.055Z,76.17
2018-04-15T23:25:17.065Z,80.73
2018-04-15T23:27:49.493Z,75.27
2018-04-15T23:30:17.614Z,82.30
2018-04-15T23:32:47.553Z,80.10
2018-04-15T23:35:17.179Z,79.93
2018-04-15T23:37:45.281Z,75.30
2018-04-15T23:40:18.985Z,78.43
2018-04-15T23:42:52.497Z,75.90
2018-04-15T23:45:27.038Z,78.87
2018-04-15T23:47:55.865Z,70.67
2018-04-15T23:50:29.769Z,67.83
2018-04-15T23:53:22.378Z,78.63
2018-04-15T23:55:56.773Z,75.10
2018-04-15T23:58:26.862Z,74.53
